Time;durP1;ratioP1;P1;durP2;ratioP2;P2;SDS_P1;SDS_P2;PMS_P1;PMS_P2;Temp;Humidity;BMP_temperature;BMP_pressure;BME280_temperature;BME280_humidity;BME280_pressure;Samples;Min_cycle;Max_cycle;Signal;HPM_P1;HPM_P2
2023/07/31 00:00:59;;;;;;;0.20;0.20;;;;;;;;;;5142870;27;20406;-60
2023/07/31 00:03:24;;;;;;;0.10;0.10;;;;;;;;;;5135430;27;20047;-60
2023/07/31 00:05:50;;;;;;;0.10;0.10;;;;;;;;;;5154251;27;20162;-59
2023/07/31 00:08:16;;;;;;;0.10;0.10;;;;;;;;;;5149583;27;20050;-60
2023/07/31 00:10:41;;;;;;;0.20;0.20;;;;;;;;;;5141403;27;20194;-60
2023/07/31 00:13:07;;;;;;;0.10;0.10;;;;;;;;;;5139845;27;20039;-60
2023/07/31 00:15:32;;;;;;;0.10;0.10;;;;;;;;;;5134584;28;20054;-60
2023/07/31 00:17:58;;;;;;;0.10;0.10;;;;;;;;;;5134040;28;20444;-60
2023/07/31 00:20:23;;;;;;;0.20;0.20;;;;;;;;;;5138820;27;20078;-60
2023/07/31 00:22:49;;;;;;;0.20;0.20;;;;;;;;;;5154593;27;20478;-60
2023/07/31 00:25:15;;;;;;;0.10;0.10;;;;;;;;;;5149472;27;20046;-60
2023/07/31 00:27:44;;;;;;;0.20;0.20;;;;;;;;;;5154644;27;20446;-60
2023/07/31 00:30:10;;;;;;;0.10;0.10;;;;;;;;;;5154229;27;20051;-60
2023/07/31 00:32:35;;;;;;;0.20;0.20;;;;;;;;;;5152515;27;20119;-60
2023/07/31 00:35:01;;;;;;;0.20;0.20;;;;;;;;;;5135714;27;20043;-60
2023/07/31 00:37:27;;;;;;;0.75;0.30;;;;;;;;;;5135689;27;20071;-60
2023/07/31 00:39:52;;;;;;;0.10;0.10;;;;;;;;;;5147754;27;20167;-60
2023/07/31 00:42:18;;;;;;;0.20;0.20;;;;;;;;;;5154045;27;20395;-60
2023/07/31 00:44:43;;;;;;;0.10;0.10;;;;;;;;;;5154007;27;20047;-60
2023/07/31 00:47:09;;;;;;;0.10;0.10;;;;;;;;;;5153838;27;20096;-60
2023/07/31 00:49:34;;;;;;;0.20;0.20;;;;;;;;;;5154066;27;20259;-60
2023/07/31 00:52:00;;;;;;;0.20;0.20;;;;;;;;;;5153674;27;20050;-60
2023/07/31 00:54:26;;;;;;;0.13;0.13;;;;;;;;;;5154282;27;20059;-60
2023/07/31 00:56:52;;;;;;;0.20;0.20;;;;;;;;;;5153366;27;20097;-60
2023/07/31 00:59:18;;;;;;;0.15;0.15;;;;;;;;;;5135082;27;20143;-60
2023/07/31 01:01:44;;;;;;;0.20;0.20;;;;;;;;;;5148751;27;20474;-60
2023/07/31 01:04:10;;;;;;;0.15;0.15;;;;;;;;;;5152339;27;20407;-60
2023/07/31 01:06:48;;;;;;;0.20;0.20;;;;;;;;;;5154200;27;20050;-59
2023/07/31 01:09:34;;;;;;;0.20;0.20;;;;;;;;;;5150789;27;20392;-60
2023/07/31 01:12:01;;;;;;;0.20;0.20;;;;;;;;;;5136000;27;20053;-60
2023/07/31 01:14:27;;;;;;;0.10;0.10;;;;;;;;;;5143301;27;20431;-60
2023/07/31 01:16:52;;;;;;;0.20;0.20;;;;;;;;;;5132216;28;20736;-60
2023/07/31 01:19:21;;;;;;;0.20;0.20;;;;;;;;;;5133331;28;20544;-60
2023/07/31 01:21:56;;;;;;;0.20;0.20;;;;;;;;;;5149021;27;20410;-60
2023/07/31 01:24:23;;;;;;;0.20;0.20;;;;;;;;;;5153809;27;20050;-60
2023/07/31 01:26:55;;;;;;;0.20;0.20;;;;;;;;;;5152541;27;20046;-59
2023/07/31 01:29:25;;;;;;;0.20;0.20;;;;;;;;;;5153533;27;20042;-60
2023/07/31 01:31:53;;;;;;;0.20;0.20;;;;;;;;;;5152877;27;20066;-60
2023/07/31 01:34:19;;;;;;;0.20;0.20;;;;;;;;;;5151901;27;20073;-61
2023/07/31 01:36:44;;;;;;;0.20;0.20;;;;;;;;;;5139253;27;20050;-60
2023/07/31 01:39:10;;;;;;;0.20;0.20;;;;;;;;;;5144198;27;20094;-60
2023/07/31 01:41:35;;;;;;;0.20;0.20;;;;;;;;;;5138672;27;20088;-60
2023/07/31 01:44:01;;;;;;;0.20;0.20;;;;;;;;;;5134551;27;20180;-60
2023/07/31 01:46:26;;;;;;;0.20;0.20;;;;;;;;;;5153098;27;20043;-60
2023/07/31 01:48:52;;;;;;;0.20;0.20;;;;;;;;;;5153075;27;20098;-60
2023/07/31 01:51:17;;;;;;;0.20;0.20;;;;;;;;;;5140017;27;20047;-60
2023/07/31 01:53:43;;;;;;;0.20;0.20;;;;;;;;;;5132761;28;20475;-60
2023/07/31 01:56:08;;;;;;;0.20;0.20;;;;;;;;;;5132739;28;20054;-60
2023/07/31 01:58:34;;;;;;;0.10;0.10;;;;;;;;;;5132334;27;20047;-60
2023/07/31 02:00:59;;;;;;;0.20;0.20;;;;;;;;;;5142904;27;20047;-60
2023/07/31 02:03:25;;;;;;;0.20;0.20;;;;;;;;;;5152123;27;20480;-47
2023/07/31 02:05:51;;;;;;;0.10;0.10;;;;;;;;;;5151538;27;20043;-47
2023/07/31 02:08:16;;;;;;;0.20;0.20;;;;;;;;;;5152921;27;20141;-46
2023/07/31 02:10:42;;;;;;;0.20;0.20;;;;;;;;;;5151049;27;20475;-47
2023/07/31 02:13:07;;;;;;;0.20;0.20;;;;;;;;;;5133828;27;20091;-45
2023/07/31 02:15:33;;;;;;;0.20;0.20;;;;;;;;;;5137871;27;20154;-46
2023/07/31 02:17:58;;;;;;;0.20;0.20;;;;;;;;;;5152150;27;20507;-48
2023/07/31 02:20:24;;;;;;;0.20;0.20;;;;;;;;;;5152363;27;20049;-46
2023/07/31 02:22:50;;;;;;;0.20;0.20;;;;;;;;;;5151075;27;20047;-47
2023/07/31 02:25:15;;;;;;;0.20;0.20;;;;;;;;;;5134879;27;20111;-44
2023/07/31 02:27:41;;;;;;;0.10;0.10;;;;;;;;;;5132256;27;20051;-46
2023/07/31 02:30:07;;;;;;;0.10;0.10;;;;;;;;;;5134841;27;20046;-47
2023/07/31 02:32:32;;;;;;;0.20;0.20;;;;;;;;;;5152470;27;20054;-49
2023/07/31 02:34:58;;;;;;;0.20;0.20;;;;;;;;;;5152764;27;20114;-48
2023/07/31 02:37:23;;;;;;;0.20;0.20;;;;;;;;;;5139547;27;20503;-48
2023/07/31 02:39:49;;;;;;;0.20;0.20;;;;;;;;;;5141150;27;20081;-48
2023/07/31 02:42:14;;;;;;;0.20;0.20;;;;;;;;;;5148261;27;20053;-48
2023/07/31 02:44:40;;;;;;;0.15;0.15;;;;;;;;;;5151763;27;20058;-49
2023/07/31 02:47:06;;;;;;;0.10;0.10;;;;;;;;;;5152291;27;20065;-49
2023/07/31 02:49:31;;;;;;;0.10;0.10;;;;;;;;;;5152211;27;20057;-48
2023/07/31 02:51:57;;;;;;;0.20;0.20;;;;;;;;;;5151609;27;20053;-45
2023/07/31 02:54:22;;;;;;;0.10;0.10;;;;;;;;;;5152126;27;20070;-48
2023/07/31 02:56:48;;;;;;;0.10;0.10;;;;;;;;;;5152272;27;20050;-49
2023/07/31 02:59:15;;;;;;;0.10;0.10;;;;;;;;;;5152241;27;20209;-48
2023/07/31 03:01:40;;;;;;;0.10;0.10;;;;;;;;;;5142882;27;20084;-49
2023/07/31 03:04:06;;;;;;;0.20;0.20;;;;;;;;;;5134810;27;20054;-48
2023/07/31 03:06:32;;;;;;;0.20;0.20;;;;;;;;;;5142231;27;20456;-48
2023/07/31 03:08:57;;;;;;;0.20;0.20;;;;;;;;;;5152115;27;20479;-49
2023/07/31 03:11:23;;;;;;;0.20;0.20;;;;;;;;;;5150785;27;20455;-49
2023/07/31 03:13:48;;;;;;;0.20;0.20;;;;;;;;;;5141683;27;20047;-48
2023/07/31 03:16:14;;;;;;;0.15;0.15;;;;;;;;;;5131175;28;20324;-48
2023/07/31 03:18:39;;;;;;;0.20;0.20;;;;;;;;;;5131664;27;20395;-49
2023/07/31 03:21:05;;;;;;;0.20;0.20;;;;;;;;;;5142915;27;20082;-49
2023/07/31 03:23:30;;;;;;;0.17;0.17;;;;;;;;;;5152096;27;20042;-48
2023/07/31 03:25:57;;;;;;;0.20;0.20;;;;;;;;;;5146881;27;20179;-49
2023/07/31 03:28:22;;;;;;;0.20;0.20;;;;;;;;;;5151500;27;20042;-49
2023/07/31 03:30:48;;;;;;;0.20;0.20;;;;;;;;;;5144801;27;20122;-49
2023/07/31 03:33:13;;;;;;;0.20;0.20;;;;;;;;;;5151752;27;20046;-49
2023/07/31 03:35:39;;;;;;;0.20;0.20;;;;;;;;;;5155305;27;20380;-48
2023/07/31 03:38:04;;;;;;;0.20;0.20;;;;;;;;;;5150241;27;20039;-49
2023/07/31 03:40:30;;;;;;;0.20;0.20;;;;;;;;;;5140206;27;20043;-48
2023/07/31 03:42:56;;;;;;;0.17;0.17;;;;;;;;;;5138225;27;20058;-49
2023/07/31 03:45:21;;;;;;;0.20;0.20;;;;;;;;;;5140564;27;20055;-48
2023/07/31 03:47:47;;;;;;;0.20;0.20;;;;;;;;;;5134470;28;20047;-49
2023/07/31 03:50:12;;;;;;;0.10;0.10;;;;;;;;;;5138312;27;20057;-49
2023/07/31 03:52:38;;;;;;;0.10;0.10;;;;;;;;;;5154989;27;20502;-49
2023/07/31 03:55:04;;;;;;;0.20;0.20;;;;;;;;;;5155634;27;20050;-48
2023/07/31 03:57:29;;;;;;;0.20;0.20;;;;;;;;;;5154936;27;20466;-48
2023/07/31 03:59:55;;;;;;;0.20;0.20;;;;;;;;;;5154464;27;20047;-49
2023/07/31 04:02:20;;;;;;;0.17;0.17;;;;;;;;;;5152684;27;20110;-49
2023/07/31 04:04:46;;;;;;;0.20;0.20;;;;;;;;;;5154327;27;20246;-49
2023/07/31 04:07:11;;;;;;;0.20;0.20;;;;;;;;;;5145598;27;20192;-50
2023/07/31 04:09:37;;;;;;;0.20;0.20;;;;;;;;;;5134356;27;20043;-48
2023/07/31 04:12:02;;;;;;;0.30;0.20;;;;;;;;;;5152885;27;20050;-47
2023/07/31 04:14:28;;;;;;;0.20;0.20;;;;;;;;;;5152847;27;20050;-48
2023/07/31 04:16:53;;;;;;;0.17;0.17;;;;;;;;;;5151119;27;20494;-49
2023/07/31 04:19:19;;;;;;;0.20;0.20;;;;;;;;;;5151435;27;20074;-49
2023/07/31 04:21:45;;;;;;;0.20;0.20;;;;;;;;;;5151299;27;20042;-49
2023/07/31 04:24:10;;;;;;;0.10;0.10;;;;;;;;;;5154551;27;20054;-49
2023/07/31 04:26:36;;;;;;;0.20;0.20;;;;;;;;;;5151255;27;20116;-47
2023/07/31 04:29:01;;;;;;;0.10;0.10;;;;;;;;;;5134113;27;20047;-49
2023/07/31 04:31:27;;;;;;;0.63;0.32;;;;;;;;;;5145094;27;20046;-49
2023/07/31 04:33:52;;;;;;;0.20;0.20;;;;;;;;;;5154382;27;20058;-47
2023/07/31 04:36:18;;;;;;;0.20;0.20;;;;;;;;;;5154507;27;20173;-49
2023/07/31 04:38:43;;;;;;;0.20;0.20;;;;;;;;;;5120639;27;20039;-50
2023/07/31 04:41:09;;;;;;;0.10;0.10;;;;;;;;;;5152905;27;20058;-48
2023/07/31 04:43:34;;;;;;;0.20;0.20;;;;;;;;;;5148361;27;20078;-48
2023/07/31 04:46:00;;;;;;;0.20;0.20;;;;;;;;;;5150213;27;20051;-48
2023/07/31 04:48:25;;;;;;;0.20;0.20;;;;;;;;;;5134095;27;20111;-49
2023/07/31 04:50:51;;;;;;;0.20;0.20;;;;;;;;;;5143062;27;20042;-47
2023/07/31 04:53:16;;;;;;;0.20;0.20;;;;;;;;;;5154780;27;20059;-49
2023/07/31 04:55:42;;;;;;;0.10;0.10;;;;;;;;;;5154699;27;20058;-49
2023/07/31 04:58:07;;;;;;;0.10;0.10;;;;;;;;;;5154343;27;20220;-49
2023/07/31 05:00:33;;;;;;;0.20;0.20;;;;;;;;;;5154344;27;20083;-48
2023/07/31 05:02:58;;;;;;;0.10;0.10;;;;;;;;;;5153852;27;20046;-48
2023/07/31 05:05:24;;;;;;;0.10;0.10;;;;;;;;;;5153108;27;20099;-48
2023/07/31 05:07:50;;;;;;;0.20;0.20;;;;;;;;;;5150854;27;20043;-49
2023/07/31 05:10:15;;;;;;;0.20;0.20;;;;;;;;;;5150586;27;20095;-47
2023/07/31 05:12:41;;;;;;;0.20;0.20;;;;;;;;;;5154047;27;20042;-49
2023/07/31 05:15:07;;;;;;;0.20;0.20;;;;;;;;;;5154364;27;20387;-49
2023/07/31 05:17:32;;;;;;;0.10;0.10;;;;;;;;;;5152579;27;20047;-48
2023/07/31 05:19:58;;;;;;;0.20;0.20;;;;;;;;;;5154211;27;20058;-47
2023/07/31 05:22:23;;;;;;;0.20;0.20;;;;;;;;;;5149987;27;20043;-49
2023/07/31 05:24:49;;;;;;;0.20;0.20;;;;;;;;;;5154133;27;20073;-49
2023/07/31 05:27:18;;;;;;;0.20;0.20;;;;;;;;;;5154438;27;20039;-60
2023/07/31 05:29:44;;;;;;;0.10;0.10;;;;;;;;;;5143608;27;20051;-45
2023/07/31 05:32:09;;;;;;;0.20;0.20;;;;;;;;;;5137025;27;20552;-48
2023/07/31 05:34:35;;;;;;;0.20;0.20;;;;;;;;;;5152904;27;20536;-48
2023/07/31 05:37:00;;;;;;;0.20;0.20;;;;;;;;;;5153316;27;20073;-49
2023/07/31 05:39:26;;;;;;;0.20;0.20;;;;;;;;;;5144104;27;20404;-49
2023/07/31 05:41:51;;;;;;;0.20;0.20;;;;;;;;;;5137117;27;20039;-49
2023/07/31 05:44:17;;;;;;;0.20;0.20;;;;;;;;;;5142825;27;20095;-48
2023/07/31 05:46:42;;;;;;;0.20;0.20;;;;;;;;;;5151489;27;20042;-49
2023/07/31 05:49:08;;;;;;;0.10;0.10;;;;;;;;;;5152259;27;20142;-49
2023/07/31 05:51:34;;;;;;;0.20;0.20;;;;;;;;;;5153418;27;20043;-48
2023/07/31 05:53:59;;;;;;;0.20;0.20;;;;;;;;;;5153984;27;20095;-49
2023/07/31 05:56:27;;;;;;;0.20;0.20;;;;;;;;;;5153965;27;20043;-49
2023/07/31 05:58:52;;;;;;;0.20;0.20;;;;;;;;;;5153212;27;20046;-50
2023/07/31 06:01:18;;;;;;;0.20;0.20;;;;;;;;;;5153271;27;20431;-49
2023/07/31 06:03:44;;;;;;;0.20;0.20;;;;;;;;;;5153497;27;20141;-46
2023/07/31 06:06:09;;;;;;;0.20;0.20;;;;;;;;;;5150892;27;20061;-49
2023/07/31 06:08:35;;;;;;;0.10;0.10;;;;;;;;;;5152993;27;20050;-49
2023/07/31 06:11:00;;;;;;;0.20;0.20;;;;;;;;;;5147021;27;20060;-48
2023/07/31 06:13:26;;;;;;;0.20;0.20;;;;;;;;;;5146495;27;20088;-48
2023/07/31 06:15:51;;;;;;;0.20;0.20;;;;;;;;;;5152571;27;20098;-48
2023/07/31 06:18:17;;;;;;;0.20;0.20;;;;;;;;;;5148544;27;20395;-49
2023/07/31 06:20:43;;;;;;;0.20;0.20;;;;;;;;;;5140758;27;20429;-49
2023/07/31 06:23:08;;;;;;;0.20;0.20;;;;;;;;;;5150855;27;20059;-47
2023/07/31 06:25:34;;;;;;;0.13;0.13;;;;;;;;;;5153188;27;20046;-49
2023/07/31 06:27:59;;;;;;;0.20;0.20;;;;;;;;;;5153421;27;20053;-49
2023/07/31 06:30:25;;;;;;;0.20;0.20;;;;;;;;;;5147573;27;20047;-49
2023/07/31 06:32:50;;;;;;;0.20;0.20;;;;;;;;;;5132494;27;20453;-48
2023/07/31 06:35:16;;;;;;;0.20;0.20;;;;;;;;;;5144424;27;20047;-49
2023/07/31 06:37:44;;;;;;;0.20;0.20;;;;;;;;;;5152571;27;20053;-49
2023/07/31 06:40:09;;;;;;;0.20;0.20;;;;;;;;;;5136227;27;20051;-48
2023/07/31 06:42:35;;;;;;;0.20;0.20;;;;;;;;;;5131349;28;20467;-48
2023/07/31 06:45:01;;;;;;;0.20;0.20;;;;;;;;;;5132492;27;20047;-49
2023/07/31 06:47:27;;;;;;;0.20;0.20;;;;;;;;;;5144047;27;20046;-46
2023/07/31 06:49:52;;;;;;;0.20;0.20;;;;;;;;;;5147016;27;20452;-47
2023/07/31 06:52:18;;;;;;;0.20;0.20;;;;;;;;;;5147211;27;20047;-48
2023/07/31 06:54:44;;;;;;;0.20;0.20;;;;;;;;;;5152848;27;20491;-38
2023/07/31 06:57:10;;;;;;;0.20;0.20;;;;;;;;;;5152818;27;20119;-48
2023/07/31 06:59:35;;;;;;;0.20;0.20;;;;;;;;;;5152800;27;20482;-48
2023/07/31 07:02:01;;;;;;;0.15;0.15;;;;;;;;;;5132356;27;20100;-49
2023/07/31 07:04:28;;;;;;;0.20;0.20;;;;;;;;;;5131987;28;20051;-49
2023/07/31 07:06:54;;;;;;;0.20;0.20;;;;;;;;;;5132176;28;20107;-49
2023/07/31 07:09:19;;;;;;;0.20;0.20;;;;;;;;;;5132952;27;20555;-48
2023/07/31 07:11:45;;;;;;;0.20;0.20;;;;;;;;;;5142472;27;20047;-49
2023/07/31 07:14:10;;;;;;;0.20;0.20;;;;;;;;;;5137144;27;20047;-48
2023/07/31 07:16:36;;;;;;;0.20;0.20;;;;;;;;;;5131291;28;20111;-48
2023/07/31 07:19:02;;;;;;;0.20;0.20;;;;;;;;;;5131578;28;20138;-49
2023/07/31 07:21:30;;;;;;;0.20;0.20;;;;;;;;;;5145152;27;20043;-49
2023/07/31 07:23:56;;;;;;;0.20;0.20;;;;;;;;;;5152064;27;20069;-48
2023/07/31 07:26:21;;;;;;;0.10;0.10;;;;;;;;;;5146923;27;20051;-48
2023/07/31 07:28:47;;;;;;;0.20;0.20;;;;;;;;;;5152474;27;20517;-49
2023/07/31 07:31:13;;;;;;;0.10;0.10;;;;;;;;;;5151863;27;20087;-49
2023/07/31 07:33:38;;;;;;;0.10;0.10;;;;;;;;;;5151201;27;20491;-49
2023/07/31 07:36:05;;;;;;;0.10;0.10;;;;;;;;;;5150192;27;20069;-48
2023/07/31 07:38:31;;;;;;;0.20;0.20;;;;;;;;;;5132419;27;20051;-47
2023/07/31 07:40:56;;;;;;;0.20;0.20;;;;;;;;;;5130912;27;20047;-48
2023/07/31 07:43:22;;;;;;;0.20;0.20;;;;;;;;;;5131340;28;20488;-49
2023/07/31 07:45:47;;;;;;;0.20;0.20;;;;;;;;;;5137672;27;20132;-49
2023/07/31 07:48:13;;;;;;;0.20;0.20;;;;;;;;;;5147562;27;20054;-49
2023/07/31 07:50:38;;;;;;;0.20;0.20;;;;;;;;;;5141637;27;20133;-46
2023/07/31 07:53:04;;;;;;;0.10;0.10;;;;;;;;;;5135750;27;20043;-39
2023/07/31 07:55:30;;;;;;;0.10;0.10;;;;;;;;;;5131257;27;20049;-39
2023/07/31 07:57:55;;;;;;;0.20;0.20;;;;;;;;;;5129849;27;20043;-39
2023/07/31 08:00:21;;;;;;;0.10;0.10;;;;;;;;;;5133129;27;20053;-39
2023/07/31 08:02:47;;;;;;;0.20;0.20;;;;;;;;;;5130067;28;20054;-39
2023/07/31 08:05:13;;;;;;;0.17;0.17;;;;;;;;;;5130944;27;20079;-39
2023/07/31 08:07:38;;;;;;;0.20;0.20;;;;;;;;;;5137180;27;20154;-39
2023/07/31 08:10:04;;;;;;;0.20;0.20;;;;;;;;;;5136048;27;20100;-39
2023/07/31 08:12:29;;;;;;;0.20;0.20;;;;;;;;;;5144790;27;20414;-39
2023/07/31 08:14:55;;;;;;;0.20;0.20;;;;;;;;;;5133504;27;20043;-39
2023/07/31 08:17:20;;;;;;;0.20;0.20;;;;;;;;;;5131867;27;20058;-38
2023/07/31 08:19:46;;;;;;;0.20;0.20;;;;;;;;;;5130354;27;20042;-38
2023/07/31 08:22:12;;;;;;;0.20;0.20;;;;;;;;;;5144593;27;20456;-39
2023/07/31 08:24:38;;;;;;;0.20;0.20;;;;;;;;;;5133284;27;20050;-39
2023/07/31 08:27:05;;;;;;;0.15;0.15;;;;;;;;;;5139527;27;20050;-39
2023/07/31 08:29:31;;;;;;;0.20;0.20;;;;;;;;;;5134868;27;20043;-39
2023/07/31 08:31:56;;;;;;;0.20;0.20;;;;;;;;;;5148518;27;20058;-39
2023/07/31 08:34:22;;;;;;;0.20;0.20;;;;;;;;;;5134533;27;20043;-39
2023/07/31 08:36:47;;;;;;;0.20;0.20;;;;;;;;;;5132652;27;20047;-39
2023/07/31 08:39:13;;;;;;;0.20;0.20;;;;;;;;;;5132213;27;20514;-39
2023/07/31 08:41:39;;;;;;;0.10;0.10;;;;;;;;;;5132480;27;20478;-39
2023/07/31 08:44:05;;;;;;;0.10;0.10;;;;;;;;;;5133761;27;20055;-39
2023/07/31 08:46:31;;;;;;;0.10;0.10;;;;;;;;;;5147018;27;20472;-39
2023/07/31 08:48:58;;;;;;;0.20;0.20;;;;;;;;;;5151766;27;20155;-39
2023/07/31 08:51:24;;;;;;;0.10;0.10;;;;;;;;;;5135718;27;20047;-39
2023/07/31 08:53:49;;;;;;;0.13;0.13;;;;;;;;;;5134681;27;20476;-39
2023/07/31 08:56:16;;;;;;;0.20;0.20;;;;;;;;;;5132515;27;20050;-39
2023/07/31 08:58:43;;;;;;;0.20;0.20;;;;;;;;;;5141042;27;20047;-39
2023/07/31 09:01:08;;;;;;;0.20;0.20;;;;;;;;;;5148169;27;20502;-39
2023/07/31 09:03:35;;;;;;;0.20;0.20;;;;;;;;;;5132440;27;20298;-39
2023/07/31 09:06:02;;;;;;;0.20;0.20;;;;;;;;;;5132308;28;20047;-46
2023/07/31 09:08:30;;;;;;;0.20;0.20;;;;;;;;;;5142701;27;20054;-39
2023/07/31 09:10:58;;;;;;;0.20;0.20;;;;;;;;;;5131260;27;20510;-39
2023/07/31 09:13:24;;;;;;;;;;;;;;;;;;5134300;27;20468;-39
2023/07/31 09:15:50;;;;;;;0.20;0.20;;;;;;;;;;5138412;27;19930;-39
2023/07/31 09:18:19;;;;;;;0.20;0.20;;;;;;;;;;5136237;27;20053;-39
2023/07/31 09:20:44;;;;;;;0.20;0.20;;;;;;;;;;5137478;27;20055;-39
2023/07/31 09:23:11;;;;;;;0.20;0.20;;;;;;;;;;5132549;27;20414;-39
2023/07/31 09:25:37;;;;;;;0.20;0.20;;;;;;;;;;5143720;27;20055;-39
2023/07/31 09:28:05;;;;;;;0.20;0.20;;;;;;;;;;5134105;27;20540;-39
2023/07/31 09:30:30;;;;;;;0.10;0.10;;;;;;;;;;5132940;27;20394;-39
2023/07/31 09:33:05;;;;;;;0.20;0.20;;;;;;;;;;5132623;27;20043;-39
2023/07/31 09:35:32;;;;;;;0.10;0.10;;;;;;;;;;5133757;27;20059;-39
2023/07/31 09:37:59;;;;;;;0.20;0.20;;;;;;;;;;5146749;27;20055;-39
2023/07/31 09:40:33;;;;;;;0.20;0.20;;;;;;;;;;5134649;27;20046;-39
2023/07/31 09:43:00;;;;;;;0.20;0.20;;;;;;;;;;5132913;28;20096;-38
2023/07/31 09:45:26;;;;;;;0.20;0.20;;;;;;;;;;5142323;27;20452;-39
2023/07/31 09:48:09;;;;;;;0.10;0.10;;;;;;;;;;5139063;27;20344;-39
2023/07/31 09:50:36;;;;;;;0.20;0.20;;;;;;;;;;5150909;27;20059;-39
2023/07/31 09:53:02;;;;;;;0.20;0.20;;;;;;;;;;5147984;27;20042;-39
2023/07/31 09:55:28;;;;;;;0.20;0.20;;;;;;;;;;5146026;27;20410;-40
2023/07/31 09:57:55;;;;;;;0.20;0.20;;;;;;;;;;5131789;28;20043;-39
2023/07/31 10:00:22;;;;;;;0.20;0.20;;;;;;;;;;5135038;27;20051;-38
2023/07/31 10:02:48;;;;;;;0.10;0.10;;;;;;;;;;5138758;27;20054;-39
2023/07/31 10:05:15;;;;;;;0.20;0.20;;;;;;;;;;5142852;27;20061;-39
2023/07/31 10:07:42;;;;;;;0.20;0.20;;;;;;;;;;5135241;27;20043;-38
2023/07/31 10:10:09;;;;;;;0.20;0.20;;;;;;;;;;5131337;27;20120;-38
2023/07/31 10:12:35;;;;;;;0.20;0.20;;;;;;;;;;5130332;27;20043;-39
2023/07/31 10:15:01;;;;;;;0.20;0.20;;;;;;;;;;5130847;27;20056;-39
2023/07/31 10:17:28;;;;;;;0.20;0.20;;;;;;;;;;5139335;27;20403;-39
2023/07/31 10:19:53;;;;;;;0.20;0.20;;;;;;;;;;5132003;27;20062;-39
2023/07/31 10:22:21;;;;;;;0.20;0.20;;;;;;;;;;5143149;27;20412;-39
2023/07/31 10:24:46;;;;;;;0.20;0.20;;;;;;;;;;5143876;27;20070;-39
2023/07/31 10:27:12;;;;;;;0.20;0.20;;;;;;;;;;5134706;27;20044;-39
2023/07/31 10:29:38;;;;;;;0.20;0.20;;;;;;;;;;5131928;27;20196;-39
2023/07/31 10:32:06;;;;;;;0.30;0.30;;;;;;;;;;5141200;27;20055;-39
2023/07/31 10:34:33;;;;;;;0.10;0.10;;;;;;;;;;5131478;28;20054;-54
2023/07/31 10:37:19;;;;;;;0.20;0.20;;;;;;;;;;5146153;27;20513;-39
2023/07/31 10:39:54;;;;;;;0.20;0.20;;;;;;;;;;5119258;27;20096;-39
2023/07/31 10:42:26;;;;;;;0.20;0.20;;;;;;;;;;5143677;27;20379;-39
2023/07/31 10:44:54;;;;;;;0.20;0.20;;;;;;;;;;5136088;27;20442;-39
2023/07/31 10:47:20;;;;;;;0.10;0.10;;;;;;;;;;5148563;27;20487;-39
2023/07/31 10:49:46;;;;;;;0.20;0.20;;;;;;;;;;5146659;27;20066;-39
2023/07/31 10:52:13;;;;;;;0.20;0.20;;;;;;;;;;5132827;27;20043;-39
2023/07/31 10:54:39;;;;;;;0.15;0.15;;;;;;;;;;5141017;27;20055;-39
2023/07/31 10:57:18;;;;;;;0.13;0.13;;;;;;;;;;5145037;27;20134;-39
2023/07/31 10:59:44;;;;;;;0.20;0.20;;;;;;;;;;5135164;27;20050;-39
2023/07/31 11:02:23;;;;;;;0.20;0.20;;;;;;;;;;5142860;27;20047;-39
2023/07/31 11:05:05;;;;;;;0.17;0.17;;;;;;;;;;5144067;27;20053;-39
2023/07/31 11:07:46;;;;;;;0.20;0.20;;;;;;;;;;5135162;27;20054;-40
2023/07/31 11:10:15;;;;;;;0.20;0.20;;;;;;;;;;5134413;27;20043;-39
2023/07/31 11:12:41;;;;;;;0.20;0.20;;;;;;;;;;5130624;28;20051;-39
2023/07/31 11:15:06;;;;;;;0.10;0.10;;;;;;;;;;5134963;27;20104;-39
2023/07/31 11:17:32;;;;;;;0.20;0.20;;;;;;;;;;5148009;27;20102;-39
2023/07/31 11:19:57;;;;;;;0.20;0.20;;;;;;;;;;5140264;27;20054;-48
2023/07/31 11:22:23;;;;;;;0.10;0.10;;;;;;;;;;5139979;27;20050;-39
2023/07/31 11:24:48;;;;;;;0.20;0.20;;;;;;;;;;5144124;27;20422;-38
2023/07/31 11:27:14;;;;;;;0.20;0.20;;;;;;;;;;5135882;27;20475;-39
2023/07/31 11:29:40;;;;;;;0.20;0.20;;;;;;;;;;5133923;27;20108;-39
2023/07/31 11:32:15;;;;;;;0.20;0.20;;;;;;;;;;5142160;27;20047;-39
2023/07/31 11:34:55;;;;;;;0.22;0.22;;;;;;;;;;5134525;27;20430;-39
2023/07/31 11:37:22;;;;;;;0.10;0.10;;;;;;;;;;5144025;27;20055;-39
2023/07/31 11:40:03;;;;;;;0.10;0.10;;;;;;;;;;5136329;27;20532;-39
2023/07/31 11:42:28;;;;;;;0.20;0.20;;;;;;;;;;5140354;27;20050;-39
2023/07/31 11:44:54;;;;;;;0.20;0.20;;;;;;;;;;5131446;27;20050;-38
2023/07/31 11:47:19;;;;;;;0.20;0.20;;;;;;;;;;5129535;27;20036;-39
2023/07/31 11:49:45;;;;;;;0.10;0.10;;;;;;;;;;5130680;27;20452;-39
2023/07/31 11:52:12;;;;;;;0.20;0.20;;;;;;;;;;5134904;27;20070;-39
2023/07/31 11:54:38;;;;;;;0.20;0.20;;;;;;;;;;5142547;27;20053;-39
2023/07/31 11:57:04;;;;;;;0.20;0.20;;;;;;;;;;5150650;27;20050;-39
2023/07/31 11:59:30;;;;;;;0.20;0.20;;;;;;;;;;5135287;27;20043;-39
2023/07/31 12:01:55;;;;;;;0.20;0.20;;;;;;;;;;5133486;27;20047;-38
2023/07/31 12:04:21;;;;;;;0.20;0.20;;;;;;;;;;5142328;27;20054;-39
2023/07/31 12:06:47;;;;;;;0.28;0.28;;;;;;;;;;5140861;27;20051;-39
2023/07/31 12:09:14;;;;;;;0.20;0.20;;;;;;;;;;5114736;27;20580;-39
2023/07/31 12:11:44;;;;;;;0.20;0.20;;;;;;;;;;5148778;27;20423;-39
2023/07/31 12:14:19;;;;;;;0.10;0.10;;;;;;;;;;5133581;27;20069;-39
2023/07/31 12:16:44;;;;;;;0.20;0.20;;;;;;;;;;5133430;28;20427;-39
2023/07/31 12:19:10;;;;;;;0.20;0.20;;;;;;;;;;5132873;27;20066;-39
2023/07/31 12:21:37;;;;;;;0.13;0.13;;;;;;;;;;5135932;27;20055;-38
2023/07/31 12:24:03;;;;;;;0.20;0.20;;;;;;;;;;5145236;27;20050;-39
2023/07/31 12:26:34;;;;;;;0.20;0.20;;;;;;;;;;5133038;28;20055;-39
2023/07/31 12:28:59;;;;;;;0.20;0.20;;;;;;;;;;5134293;27;20078;-38
2023/07/31 12:31:27;;;;;;;0.20;0.20;;;;;;;;;;5146487;27;20129;-38
2023/07/31 12:33:52;;;;;;;0.20;0.20;;;;;;;;;;5133523;27;20130;-38
2023/07/31 12:36:20;;;;;;;0.20;0.20;;;;;;;;;;5140502;27;20058;-38
2023/07/31 12:38:46;;;;;;;0.20;0.20;;;;;;;;;;5141882;27;20047;-38
2023/07/31 12:41:11;;;;;;;0.10;0.10;;;;;;;;;;5134855;27;20216;-38
2023/07/31 12:43:38;;;;;;;0.20;0.20;;;;;;;;;;5133599;27;20092;-38
2023/07/31 12:46:04;;;;;;;0.20;0.20;;;;;;;;;;5137161;27;20055;-39
2023/07/31 12:48:30;;;;;;;0.20;0.20;;;;;;;;;;5132994;27;20071;-39
2023/07/31 12:50:55;;;;;;;0.20;0.20;;;;;;;;;;5133642;27;20188;-38
2023/07/31 12:53:21;;;;;;;0.20;0.20;;;;;;;;;;5132853;27;20404;-39
2023/07/31 12:55:46;;;;;;;0.20;0.20;;;;;;;;;;5138462;27;20416;-38
2023/07/31 12:58:12;;;;;;;0.20;0.20;;;;;;;;;;5139260;27;20040;-39
2023/07/31 13:00:37;;;;;;;0.20;0.20;;;;;;;;;;5134814;27;20047;-38
2023/07/31 13:03:03;;;;;;;0.10;0.10;;;;;;;;;;5133089;28;20051;-38
2023/07/31 13:05:29;;;;;;;0.13;0.13;;;;;;;;;;5142000;27;20392;-38
2023/07/31 13:07:54;;;;;;;0.10;0.10;;;;;;;;;;5113714;28;20047;-49
2023/07/31 13:10:21;;;;;;;0.20;0.20;;;;;;;;;;5134584;27;20516;-39
2023/07/31 13:12:46;;;;;;;0.13;0.13;;;;;;;;;;5132257;27;20046;-39
2023/07/31 13:15:12;;;;;;;0.20;0.20;;;;;;;;;;5133068;28;20449;-39
2023/07/31 13:17:38;;;;;;;0.20;0.20;;;;;;;;;;5133821;27;20042;-39
2023/07/31 13:20:03;;;;;;;0.10;0.10;;;;;;;;;;5135091;27;20313;-39
2023/07/31 13:22:29;;;;;;;0.20;0.20;;;;;;;;;;5145089;27;20051;-39
2023/07/31 13:24:55;;;;;;;0.20;0.20;;;;;;;;;;5143869;27;20057;-38
2023/07/31 13:27:21;;;;;;;0.20;0.20;;;;;;;;;;5135654;27;20508;-38
2023/07/31 13:29:48;;;;;;;0.20;0.20;;;;;;;;;;5132685;27;20539;-38
2023/07/31 13:32:15;;;;;;;0.20;0.20;;;;;;;;;;5142278;27;20046;-38
2023/07/31 13:34:41;;;;;;;0.17;0.17;;;;;;;;;;5132801;28;20493;-38
2023/07/31 13:37:06;;;;;;;0.20;0.20;;;;;;;;;;5147286;27;20046;-44
2023/07/31 13:39:33;;;;;;;0.17;0.17;;;;;;;;;;5133671;27;20108;-48
2023/07/31 13:41:58;;;;;;;0.20;0.20;;;;;;;;;;5139438;27;20051;-48
2023/07/31 13:44:24;;;;;;;0.20;0.20;;;;;;;;;;5135104;27;20074;-47
2023/07/31 13:46:50;;;;;;;0.20;0.20;;;;;;;;;;5139060;27;20137;-48
2023/07/31 13:49:15;;;;;;;0.20;0.20;;;;;;;;;;5132232;27;20459;-49
2023/07/31 13:51:41;;;;;;;0.20;0.20;;;;;;;;;;5132001;27;20047;-46
2023/07/31 13:54:06;;;;;;;0.20;0.20;;;;;;;;;;5131983;28;20043;-48
2023/07/31 13:56:32;;;;;;;0.10;0.10;;;;;;;;;;5139809;27;20058;-47
2023/07/31 13:58:58;;;;;;;0.20;0.20;;;;;;;;;;5144071;27;20137;-49
2023/07/31 14:01:24;;;;;;;0.20;0.20;;;;;;;;;;5151715;27;20054;-49
2023/07/31 14:03:49;;;;;;;0.20;0.20;;;;;;;;;;5134713;27;20051;-49
2023/07/31 14:06:15;;;;;;;0.17;0.17;;;;;;;;;;5133004;28;20066;-48
2023/07/31 14:08:40;;;;;;;0.20;0.20;;;;;;;;;;5132444;27;20035;-58
2023/07/31 14:11:06;;;;;;;0.20;0.20;;;;;;;;;;5138790;27;20427;-49
2023/07/31 14:13:31;;;;;;;0.17;0.17;;;;;;;;;;5132832;28;20047;-49
2023/07/31 14:15:57;;;;;;;0.20;0.20;;;;;;;;;;5131876;28;20047;-49
2023/07/31 14:18:23;;;;;;;0.20;0.20;;;;;;;;;;5131413;27;20146;-49
2023/07/31 14:20:49;;;;;;;0.20;0.20;;;;;;;;;;5132661;27;20054;-49
2023/07/31 14:23:15;;;;;;;0.20;0.20;;;;;;;;;;5133901;27;20402;-49
2023/07/31 14:25:41;;;;;;;0.10;0.10;;;;;;;;;;5148435;27;20038;-48
2023/07/31 14:28:06;;;;;;;0.20;0.20;;;;;;;;;;5132903;27;20051;-49
2023/07/31 14:30:32;;;;;;;0.10;0.10;;;;;;;;;;5139257;27;20065;-48
2023/07/31 14:32:57;;;;;;;0.10;0.10;;;;;;;;;;5150753;27;20069;-49
2023/07/31 14:35:23;;;;;;;0.20;0.20;;;;;;;;;;5152226;27;20047;-48
2023/07/31 14:37:49;;;;;;;0.20;0.20;;;;;;;;;;5139514;27;20410;-49